sensor_id;sensor_type;location;lat;lon;timestamp;pressure;altitude;pressure_sealevel;temperature;humidity
49377;BME280;35253;34.688;33.040;2023-06-26T00:01:24;100060.03;;;26.11;93.65
49377;BME280;35253;34.688;33.040;2023-06-26T00:03:50;100069.19;;;26.31;93.39
49377;BME280;35253;34.688;33.040;2023-06-26T00:06:15;100060.34;;;26.29;92.92
49377;BME280;35253;34.688;33.040;2023-06-26T00:08:41;100066.94;;;25.94;96.57
49377;BME280;35253;34.688;33.040;2023-06-26T00:11:08;100063.38;;;26.00;96.73
49377;BME280;35253;34.688;33.040;2023-06-26T00:13:34;100065.25;;;25.93;97.70
49377;BME280;35253;34.688;33.040;2023-06-26T00:16:00;100058.72;;;25.87;98.81
49377;BME280;35253;34.688;33.040;2023-06-26T00:18:28;100058.34;;;25.97;99.16
49377;BME280;35253;34.688;33.040;2023-06-26T00:20:54;100049.31;;;26.03;98.44
49377;BME280;35253;34.688;33.040;2023-06-26T00:23:20;100050.97;;;25.91;94.93
49377;BME280;35253;34.688;33.040;2023-06-26T00:25:45;100056.59;;;25.83;94.77
49377;BME280;35253;34.688;33.040;2023-06-26T00:28:11;100051.19;;;25.96;94.76
49377;BME280;35253;34.688;33.040;2023-06-26T00:30:37;100056.41;;;25.84;95.27
49377;BME280;35253;34.688;33.040;2023-06-26T00:33:03;100052.41;;;25.87;95.69
49377;BME280;35253;34.688;33.040;2023-06-26T00:35:28;100052.28;;;26.01;94.07
49377;BME280;35253;34.688;33.040;2023-06-26T00:37:54;100046.91;;;25.74;96.54
49377;BME280;35253;34.688;33.040;2023-06-26T00:40:20;100050.66;;;25.66;96.19
49377;BME280;35253;34.688;33.040;2023-06-26T00:42:45;100045.16;;;25.60;95.29
49377;BME280;35253;34.688;33.040;2023-06-26T00:45:11;100045.81;;;25.68;93.10
49377;BME280;35253;34.688;33.040;2023-06-26T00:47:37;100039.75;;;25.66;90.74
49377;BME280;35253;34.688;33.040;2023-06-26T00:50:04;100035.94;;;25.61;90.40
49377;BME280;35253;34.688;33.040;2023-06-26T00:52:31;100036.34;;;25.58;90.82
49377;BME280;35253;34.688;33.040;2023-06-26T00:54:57;100039.94;;;25.65;91.93
49377;BME280;35253;34.688;33.040;2023-06-26T00:57:23;100033.09;;;25.95;91.23
49377;BME280;35253;34.688;33.040;2023-06-26T00:59:50;100030.94;;;25.77;92.24
49377;BME280;35253;34.688;33.040;2023-06-26T01:02:15;100038.00;;;25.58;94.54
49377;BME280;35253;34.688;33.040;2023-06-26T01:04:49;100040.44;;;25.40;96.36
49377;BME280;35253;34.688;33.040;2023-06-26T01:07:16;100034.97;;;25.40;98.73
49377;BME280;35253;34.688;33.040;2023-06-26T01:09:46;100029.88;;;25.37;99.14
49377;BME280;35253;34.688;33.040;2023-06-26T01:12:12;100029.69;;;25.39;99.12
49377;BME280;35253;34.688;33.040;2023-06-26T01:14:38;100026.91;;;25.32;99.96
49377;BME280;35253;34.688;33.040;2023-06-26T01:17:04;100026.13;;;25.38;100.00
49377;BME280;35253;34.688;33.040;2023-06-26T01:19:31;100026.66;;;25.21;100.00
49377;BME280;35253;34.688;33.040;2023-06-26T01:22:28;100025.09;;;25.05;100.00
49377;BME280;35253;34.688;33.040;2023-06-26T01:25:18;100030.78;;;25.10;100.00
49377;BME280;35253;34.688;33.040;2023-06-26T01:27:49;100024.84;;;25.00;100.00
49377;BME280;35253;34.688;33.040;2023-06-26T01:30:16;100024.19;;;24.98;100.00
49377;BME280;35253;34.688;33.040;2023-06-26T01:32:43;100029.44;;;25.27;100.00
49377;BME280;35253;34.688;33.040;2023-06-26T01:35:11;100022.28;;;25.26;100.00
49377;BME280;35253;34.688;33.040;2023-06-26T01:37:37;100023.72;;;25.56;100.00
49377;BME280;35253;34.688;33.040;2023-06-26T01:40:03;100024.03;;;25.75;100.00
49377;BME280;35253;34.688;33.040;2023-06-26T01:42:35;100027.50;;;25.55;100.00
49377;BME280;35253;34.688;33.040;2023-06-26T01:45:14;100022.94;;;25.76;100.00
49377;BME280;35253;34.688;33.040;2023-06-26T01:47:49;100016.22;;;25.72;100.00
49377;BME280;35253;34.688;33.040;2023-06-26T01:50:22;100020.91;;;25.91;100.00
49377;BME280;35253;34.688;33.040;2023-06-26T01:52:57;100015.88;;;25.88;100.00
49377;BME280;35253;34.688;33.040;2023-06-26T01:55:47;100021.53;;;25.45;100.00
49377;BME280;35253;34.688;33.040;2023-06-26T01:58:14;100017.84;;;25.60;100.00
49377;BME280;35253;34.688;33.040;2023-06-26T02:00:42;100013.34;;;25.45;100.00
49377;BME280;35253;34.688;33.040;2023-06-26T02:03:08;100020.72;;;25.51;100.00
49377;BME280;35253;34.688;33.040;2023-06-26T02:05:34;100015.38;;;25.65;100.00
49377;BME280;35253;34.688;33.040;2023-06-26T02:08:00;100017.09;;;25.79;100.00
49377;BME280;35253;34.688;33.040;2023-06-26T02:10:29;100020.72;;;25.51;100.00
49377;BME280;35253;34.688;33.040;2023-06-26T02:12:55;100020.19;;;25.28;100.00
49377;BME280;35253;34.688;33.040;2023-06-26T02:15:20;100020.19;;;25.28;100.00
49377;BME280;35253;34.688;33.040;2023-06-26T02:17:47;100014.28;;;25.18;100.00
49377;BME280;35253;34.688;33.040;2023-06-26T02:20:14;100014.97;;;25.33;100.00
49377;BME280;35253;34.688;33.040;2023-06-26T02:22:41;100017.56;;;25.48;100.00
49377;BME280;35253;34.688;33.040;2023-06-26T02:25:07;100016.63;;;25.62;100.00
49377;BME280;35253;34.688;33.040;2023-06-26T02:27:32;100018.31;;;25.70;100.00
49377;BME280;35253;34.688;33.040;2023-06-26T02:29:58;100017.09;;;25.79;100.00
49377;BME280;35253;34.688;33.040;2023-06-26T02:32:24;100012.28;;;25.87;100.00
49377;BME280;35253;34.688;33.040;2023-06-26T02:34:50;100011.88;;;25.90;100.00
49377;BME280;35253;34.688;33.040;2023-06-26T02:37:17;100019.25;;;25.96;100.00
49377;BME280;35253;34.688;33.040;2023-06-26T02:39:43;100019.91;;;26.05;100.00
49377;BME280;35253;34.688;33.040;2023-06-26T02:42:09;100022.63;;;26.05;100.00
49377;BME280;35253;34.688;33.040;2023-06-26T02:44:34;100023.88;;;25.96;100.00
49377;BME280;35253;34.688;33.040;2023-06-26T02:47:00;100023.44;;;25.99;100.00
49377;BME280;35253;34.688;33.040;2023-06-26T02:49:26;100028.09;;;26.05;100.00
49377;BME280;35253;34.688;33.040;2023-06-26T02:51:51;100023.44;;;25.99;100.00
49377;BME280;35253;34.688;33.040;2023-06-26T02:54:17;100029.38;;;26.09;100.00
49377;BME280;35253;34.688;33.040;2023-06-26T02:56:43;100036.97;;;26.20;100.00
49377;BME280;35253;34.688;33.040;2023-06-26T02:59:08;100035.28;;;26.19;100.00
49377;BME280;35253;34.688;33.040;2023-06-26T03:01:34;100025.84;;;26.22;100.00
49377;BME280;35253;34.688;33.040;2023-06-26T03:04:00;100026.91;;;26.27;100.00
49377;BME280;35253;34.688;33.040;2023-06-26T03:06:26;100027.59;;;25.82;100.00
49377;BME280;35253;34.688;33.040;2023-06-26T03:08:53;100022.84;;;25.97;100.00
49377;BME280;35253;34.688;33.040;2023-06-26T03:11:19;100037.38;;;26.11;100.00
49377;BME280;35253;34.688;33.040;2023-06-26T03:13:45;100036.44;;;25.84;100.00
49377;BME280;35253;34.688;33.040;2023-06-26T03:16:11;100038.72;;;25.74;100.00
49377;BME280;35253;34.688;33.040;2023-06-26T03:18:36;100036.72;;;25.54;100.00
49377;BME280;35253;34.688;33.040;2023-06-26T03:21:02;100034.72;;;25.70;100.00
49377;BME280;35253;34.688;33.040;2023-06-26T03:23:28;100039.03;;;26.05;100.00
49377;BME280;35253;34.688;33.040;2023-06-26T03:25:54;100053.81;;;26.30;100.00
49377;BME280;35253;34.688;33.040;2023-06-26T03:28:19;100052.16;;;26.56;100.00
49377;BME280;35253;34.688;33.040;2023-06-26T03:30:45;100054.28;;;26.73;100.00
49377;BME280;35253;34.688;33.040;2023-06-26T03:33:11;100053.88;;;26.83;100.00
49377;BME280;35253;34.688;33.040;2023-06-26T03:35:37;100061.06;;;26.97;100.00
49377;BME280;35253;34.688;33.040;2023-06-26T03:38:04;100051.34;;;27.14;100.00
49377;BME280;35253;34.688;33.040;2023-06-26T03:40:30;100059.38;;;26.96;100.00
49377;BME280;35253;34.688;33.040;2023-06-26T03:42:55;100057.47;;;26.90;100.00
49377;BME280;35253;34.688;33.040;2023-06-26T03:45:21;100059.38;;;26.96;100.00
49377;BME280;35253;34.688;33.040;2023-06-26T03:47:47;100064.19;;;27.20;100.00
49377;BME280;35253;34.688;33.040;2023-06-26T03:50:17;100061.84;;;27.37;100.00
49377;BME280;35253;34.688;33.040;2023-06-26T03:52:43;100067.72;;;27.54;100.00
49377;BME280;35253;34.688;33.040;2023-06-26T03:55:08;100059.25;;;27.62;100.00
49377;BME280;35253;34.688;33.040;2023-06-26T03:57:34;100062.78;;;27.75;100.00
49377;BME280;35253;34.688;33.040;2023-06-26T04:00:00;100060.34;;;27.54;100.00
49377;BME280;35253;34.688;33.040;2023-06-26T04:02:26;100072.78;;;27.30;100.00
49377;BME280;35253;34.688;33.040;2023-06-26T04:04:51;100069.22;;;27.17;100.00
49377;BME280;35253;34.688;33.040;2023-06-26T04:07:18;100066.50;;;27.10;100.00
49377;BME280;35253;34.688;33.040;2023-06-26T04:09:44;100070.06;;;27.37;100.00
49377;BME280;35253;34.688;33.040;2023-06-26T04:12:10;100075.50;;;27.57;100.00
49377;BME280;35253;34.688;33.040;2023-06-26T04:14:36;100071.00;;;27.75;100.00
49377;BME280;35253;34.688;33.040;2023-06-26T04:17:02;100079.81;;;27.84;100.00
49377;BME280;35253;34.688;33.040;2023-06-26T04:19:29;100075.13;;;27.98;100.00
49377;BME280;35253;34.688;33.040;2023-06-26T04:21:55;100084.81;;;28.00;100.00
49377;BME280;35253;34.688;33.040;2023-06-26T04:24:21;100080.75;;;28.09;100.00
49377;BME280;35253;34.688;33.040;2023-06-26T04:26:47;100091.94;;;28.14;100.00
49377;BME280;35253;34.688;33.040;2023-06-26T04:29:13;100088.72;;;28.24;100.00
49377;BME280;35253;34.688;33.040;2023-06-26T04:31:39;100091.66;;;28.29;100.00
49377;BME280;35253;34.688;33.040;2023-06-26T04:34:04;100088.44;;;28.39;100.00
49377;BME280;35253;34.688;33.040;2023-06-26T04:36:30;100085.91;;;28.37;100.00
49377;BME280;35253;34.688;33.040;2023-06-26T04:38:57;100086.84;;;28.25;100.00
49377;BME280;35253;34.688;33.040;2023-06-26T04:41:24;100080.44;;;28.31;100.00
49377;BME280;35253;34.688;33.040;2023-06-26T04:43:50;100082.13;;;28.32;100.00
49377;BME280;35253;34.688;33.040;2023-06-26T04:46:16;100089.78;;;28.23;100.00
49377;BME280;35253;34.688;33.040;2023-06-26T04:48:41;100105.56;;;28.34;100.00
49377;BME280;35253;34.688;33.040;2023-06-26T04:51:08;100099.63;;;28.37;100.00
49377;BME280;35253;34.688;33.040;2023-06-26T04:53:33;100094.25;;;28.55;96.48
49377;BME280;35253;34.688;33.040;2023-06-26T04:55:59;100095.31;;;27.59;98.15
49377;BME280;35253;34.688;33.040;2023-06-26T04:58:25;100097.19;;;27.39;100.00
49377;BME280;35253;34.688;33.040;2023-06-26T05:00:50;100094.25;;;27.47;100.00
49377;BME280;35253;34.688;33.040;2023-06-26T05:03:17;100096.41;;;28.02;100.00
49377;BME280;35253;34.688;33.040;2023-06-26T05:05:43;100097.13;;;27.78;100.00
49377;BME280;35253;34.688;33.040;2023-06-26T05:08:22;100100.81;;;27.19;100.00
49377;BME280;35253;34.688;33.040;2023-06-26T05:10:48;100100.16;;;27.30;100.00
49377;BME280;35253;34.688;33.040;2023-06-26T05:13:14;100096.38;;;27.31;100.00
49377;BME280;35253;34.688;33.040;2023-06-26T05:15:43;100114.47;;;27.26;100.00
49377;BME280;35253;34.688;33.040;2023-06-26T05:18:10;100117.44;;;27.18;100.00
49377;BME280;35253;34.688;33.040;2023-06-26T05:20:36;100102.69;;;27.25;100.00
49377;BME280;35253;34.688;33.040;2023-06-26T05:23:02;100113.19;;;27.61;100.00
49377;BME280;35253;34.688;33.040;2023-06-26T05:25:29;100115.72;;;27.56;100.00
49377;BME280;35253;34.688;33.040;2023-06-26T05:27:58;100115.25;;;27.86;100.00
49377;BME280;35253;34.688;33.040;2023-06-26T05:30:25;100113.59;;;27.71;100.00
49377;BME280;35253;34.688;33.040;2023-06-26T05:32:52;100113.38;;;27.73;100.00
49377;BME280;35253;34.688;33.040;2023-06-26T05:35:20;100121.44;;;27.55;100.00
49377;BME280;35253;34.688;33.040;2023-06-26T05:37:49;100112.78;;;27.45;100.00
49377;BME280;35253;34.688;33.040;2023-06-26T05:40:16;100112.81;;;27.38;100.00
49377;BME280;35253;34.688;33.040;2023-06-26T05:42:42;100121.16;;;27.76;100.00
49377;BME280;35253;34.688;33.040;2023-06-26T05:45:09;100116.16;;;27.47;100.00
49377;BME280;35253;34.688;33.040;2023-06-26T05:47:35;100125.44;;;27.26;100.00
49377;BME280;35253;34.688;33.040;2023-06-26T05:50:01;100122.94;;;27.11;100.00
49377;BME280;35253;34.688;33.040;2023-06-26T05:52:27;100126.06;;;27.34;100.00
49377;BME280;35253;34.688;33.040;2023-06-26T05:54:53;100119.31;;;27.44;100.00
49377;BME280;35253;34.688;33.040;2023-06-26T05:57:20;100133.03;;;27.24;100.00
49377;BME280;35253;34.688;33.040;2023-06-26T05:59:46;100129.66;;;27.28;100.00
49377;BME280;35253;34.688;33.040;2023-06-26T06:02:12;100127.94;;;27.41;100.00
49377;BME280;35253;34.688;33.040;2023-06-26T06:04:38;100129.22;;;27.31;100.00
49377;BME280;35253;34.688;33.040;2023-06-26T06:07:04;100132.41;;;27.28;100.00
49377;BME280;35253;34.688;33.040;2023-06-26T06:09:30;100126.72;;;27.23;100.00
49377;BME280;35253;34.688;33.040;2023-06-26T06:11:56;100134.72;;;27.38;100.00
49377;BME280;35253;34.688;33.040;2023-06-26T06:14:21;100121.00;;;27.45;100.00
49377;BME280;35253;34.688;33.040;2023-06-26T06:16:47;100114.78;;;27.89;100.00
49377;BME280;35253;34.688;33.040;2023-06-26T06:19:13;100125.09;;;27.93;100.00
49377;BME280;35253;34.688;33.040;2023-06-26T06:21:40;100127.53;;;27.57;100.00
49377;BME280;35253;34.688;33.040;2023-06-26T06:24:05;100127.97;;;27.54;100.00
49377;BME280;35253;34.688;33.040;2023-06-26T06:26:35;100126.28;;;27.53;100.00
49377;BME280;35253;34.688;33.040;2023-06-26T06:29:01;100125.03;;;27.55;100.00
49377;BME280;35253;34.688;33.040;2023-06-26T06:31:27;100123.75;;;27.51;100.00
49377;BME280;35253;34.688;33.040;2023-06-26T06:33:55;100128.38;;;27.64;100.00
49377;BME280;35253;34.688;33.040;2023-06-26T06:36:21;100126.84;;;27.81;100.00
49377;BME280;35253;34.688;33.040;2023-06-26T06:38:46;100121.56;;;27.86;100.00
49377;BME280;35253;34.688;33.040;2023-06-26T06:41:12;100113.28;;;27.99;100.00
49377;BME280;35253;34.688;33.040;2023-06-26T06:43:39;100118.94;;;28.04;100.00
49377;BME280;35253;34.688;33.040;2023-06-26T06:46:05;100119.81;;;27.98;100.00
49377;BME280;35253;34.688;33.040;2023-06-26T06:48:31;100124.97;;;28.26;100.00
49377;BME280;35253;34.688;33.040;2023-06-26T06:50:57;100120.63;;;28.05;100.00
49377;BME280;35253;34.688;33.040;2023-06-26T06:53:22;100125.56;;;27.84;100.00
49377;BME280;35253;34.688;33.040;2023-06-26T06:55:49;100117.72;;;27.94;100.00
49377;BME280;35253;34.688;33.040;2023-06-26T06:58:15;100120.19;;;28.15;100.00
49377;BME280;35253;34.688;33.040;2023-06-26T07:00:48;100114.59;;;28.35;100.00
49377;BME280;35253;34.688;33.040;2023-06-26T07:03:14;100117.53;;;28.40;100.00
49377;BME280;35253;34.688;33.040;2023-06-26T07:05:44;100117.78;;;28.32;100.00
49377;BME280;35253;34.688;33.040;2023-06-26T07:08:10;100115.41;;;28.42;100.00
49377;BME280;35253;34.688;33.040;2023-06-26T07:10:36;100110.28;;;28.14;100.00
49377;BME280;35253;34.688;33.040;2023-06-26T07:13:01;100117.28;;;28.03;100.00
49377;BME280;35253;34.688;33.040;2023-06-26T07:15:27;100111.75;;;28.16;100.00
49377;BME280;35253;34.688;33.040;2023-06-26T07:17:53;100109.09;;;28.35;100.00
49377;BME280;35253;34.688;33.040;2023-06-26T07:20:18;100118.53;;;28.83;100.00
49377;BME280;35253;34.688;33.040;2023-06-26T07:22:44;100129.50;;;28.83;100.00
49377;BME280;35253;34.688;33.040;2023-06-26T07:25:11;100119.53;;;28.57;100.00
49377;BME280;35253;34.688;33.040;2023-06-26T07:27:37;100124.84;;;28.84;100.00
49377;BME280;35253;34.688;33.040;2023-06-26T07:30:03;100119.88;;;28.74;100.00
49377;BME280;35253;34.688;33.040;2023-06-26T07:32:29;100129.50;;;28.52;100.00
49377;BME280;35253;34.688;33.040;2023-06-26T07:34:55;100125.28;;;28.49;100.00
49377;BME280;35253;34.688;33.040;2023-06-26T07:37:21;100128.69;;;28.83;100.00
49377;BME280;35253;34.688;33.040;2023-06-26T07:39:48;100133.59;;;28.67;100.00
49377;BME280;35253;34.688;33.040;2023-06-26T07:42:14;100126.91;;;28.57;100.00
49377;BME280;35253;34.688;33.040;2023-06-26T07:44:42;100128.25;;;28.79;100.00
49377;BME280;35253;34.688;33.040;2023-06-26T07:47:08;100133.88;;;28.59;100.00
49377;BME280;35253;34.688;33.040;2023-06-26T07:49:33;100136.00;;;28.89;100.00
49377;BME280;35253;34.688;33.040;2023-06-26T07:51:59;100140.72;;;28.82;100.00
49377;BME280;35253;34.688;33.040;2023-06-26T07:54:25;100151.44;;;29.15;100.00
49377;BME280;35253;34.688;33.040;2023-06-26T07:57:01;100145.81;;;28.78;100.00
49377;BME280;35253;34.688;33.040;2023-06-26T07:59:28;100147.22;;;28.87;100.00
49377;BME280;35253;34.688;33.040;2023-06-26T08:01:55;100148.00;;;28.94;100.00
49377;BME280;35253;34.688;33.040;2023-06-26T08:04:24;100146.22;;;29.06;100.00
49377;BME280;35253;34.688;33.040;2023-06-26T08:06:51;100145.97;;;28.83;100.00
49377;BME280;35253;34.688;33.040;2023-06-26T08:09:19;100156.44;;;28.99;100.00
49377;BME280;35253;34.688;33.040;2023-06-26T08:11:45;100145.34;;;29.37;100.00
49377;BME280;35253;34.688;33.040;2023-06-26T08:14:11;100153.25;;;29.52;100.00
49377;BME280;35253;34.688;33.040;2023-06-26T08:16:41;100156.47;;;28.93;100.00
49377;BME280;35253;34.688;33.040;2023-06-26T08:19:07;100159.66;;;28.90;100.00
49377;BME280;35253;34.688;33.040;2023-06-26T08:21:33;100147.25;;;28.81;100.00
49377;BME280;35253;34.688;33.040;2023-06-26T08:23:59;100157.00;;;28.77;100.00
49377;BME280;35253;34.688;33.040;2023-06-26T08:26:24;100155.72;;;28.79;100.00
49377;BME280;35253;34.688;33.040;2023-06-26T08:28:50;100156.63;;;29.23;100.00
49377;BME280;35253;34.688;33.040;2023-06-26T08:31:16;100149.69;;;29.45;100.00
49377;BME280;35253;34.688;33.040;2023-06-26T08:33:43;100155.31;;;29.32;100.00
49377;BME280;35253;34.688;33.040;2023-06-26T08:36:08;100155.22;;;28.89;100.00
49377;BME280;35253;34.688;33.040;2023-06-26T08:38:34;100161.09;;;29.48;100.00
49377;BME280;35253;34.688;33.040;2023-06-26T08:41:00;100154.84;;;29.60;100.00
49377;BME280;35253;34.688;33.040;2023-06-26T08:43:26;100165.81;;;29.41;100.00
49377;BME280;35253;34.688;33.040;2023-06-26T08:45:52;100153.75;;;29.18;100.00
49377;BME280;35253;34.688;33.040;2023-06-26T08:48:20;100159.16;;;29.31;100.00
49377;BME280;35253;34.688;33.040;2023-06-26T08:50:48;100156.97;;;29.39;100.00
49377;BME280;35253;34.688;33.040;2023-06-26T08:54:09;100160.84;;;29.25;100.00
49377;BME280;35253;34.688;33.040;2023-06-26T08:56:17;100153.06;;;29.22;100.00
49377;BME280;35253;34.688;33.040;2023-06-26T08:58:46;100163.94;;;29.10;100.00
49377;BME280;35253;34.688;33.040;2023-06-26T09:01:12;100164.16;;;29.09;100.00
49377;BME280;35253;34.688;33.040;2023-06-26T09:03:38;100158.19;;;29.43;100.00
49377;BME280;35253;34.688;33.040;2023-06-26T09:06:07;100157.81;;;29.40;100.00
49377;BME280;35253;34.688;33.040;2023-06-26T09:08:32;100155.97;;;29.27;100.00
49377;BME280;35253;34.688;33.040;2023-06-26T09:10:58;100146.56;;;29.41;100.00
49377;BME280;35253;34.688;33.040;2023-06-26T09:13:24;100160.63;;;29.02;100.00
49377;BME280;35253;34.688;33.040;2023-06-26T09:15:53;100153.66;;;29.24;100.00
49377;BME280;35253;34.688;33.040;2023-06-26T09:18:20;100157.28;;;29.92;100.00
49377;BME280;35253;34.688;33.040;2023-06-26T09:20:47;100162.00;;;30.22;100.00
49377;BME280;35253;34.688;33.040;2023-06-26T09:23:13;100157.69;;;29.53;100.00
49377;BME280;35253;34.688;33.040;2023-06-26T09:25:40;100163.47;;;29.63;100.00
49377;BME280;35253;34.688;33.040;2023-06-26T09:28:07;100159.31;;;29.79;100.00
49377;BME280;35253;34.688;33.040;2023-06-26T09:30:33;100161.91;;;29.24;100.00
49377;BME280;35253;34.688;33.040;2023-06-26T09:33:19;100159.25;;;29.42;100.00
49377;BME280;35253;34.688;33.040;2023-06-26T09:35:46;100167.53;;;29.36;100.00
49377;BME280;35253;34.688;33.040;2023-06-26T09:38:12;100172.63;;;29.32;100.00
49377;BME280;35253;34.688;33.040;2023-06-26T09:40:38;100173.94;;;29.30;100.00
49377;BME280;35253;34.688;33.040;2023-06-26T09:43:09;100165.16;;;29.64;100.00
49377;BME280;35253;34.688;33.040;2023-06-26T09:45:36;100151.38;;;29.46;100.00
49377;BME280;35253;34.688;33.040;2023-06-26T09:48:03;100161.78;;;29.44;100.00
49377;BME280;35253;34.688;33.040;2023-06-26T09:50:29;100157.69;;;29.53;100.00
49377;BME280;35253;34.688;33.040;2023-06-26T09:52:57;100152.22;;;29.89;100.00
49377;BME280;35253;34.688;33.040;2023-06-26T09:55:24;100156.50;;;30.04;100.00
49377;BME280;35253;34.688;33.040;2023-06-26T09:57:50;100151.16;;;29.90;100.00
49377;BME280;35253;34.688;33.040;2023-06-26T10:00:17;100159.78;;;29.94;100.00
49377;BME280;35253;34.688;33.040;2023-06-26T10:02:44;100150.53;;;29.70;100.00
49377;BME280;35253;34.688;33.040;2023-06-26T10:05:10;100162.63;;;30.06;100.00
49377;BME280;35253;34.688;33.040;2023-06-26T10:07:37;100166.56;;;29.73;100.00
49377;BME280;35253;34.688;33.040;2023-06-26T10:10:05;100156.94;;;29.82;100.00
49377;BME280;35253;34.688;33.040;2023-06-26T10:12:32;100157.53;;;29.66;100.00
49377;BME280;35253;34.688;33.040;2023-06-26T10:15:02;100160.47;;;30.08;100.00
49377;BME280;35253;34.688;33.040;2023-06-26T10:17:31;100151.44;;;29.82;100.00
49377;BME280;35253;34.688;33.040;2023-06-26T10:19:58;100136.63;;;30.20;100.00
49377;BME280;35253;34.688;33.040;2023-06-26T10:22:29;100138.19;;;30.46;100.00
49377;BME280;35253;34.688;33.040;2023-06-26T10:24:59;100150.38;;;29.83;100.00
49377;BME280;35253;34.688;33.040;2023-06-26T10:27:33;100134.78;;;29.77;100.00
49377;BME280;35253;34.688;33.040;2023-06-26T10:30:03;100141.66;;;29.86;100.00
49377;BME280;35253;34.688;33.040;2023-06-26T10:32:30;100127.94;;;30.05;100.00
49377;BME280;35253;34.688;33.040;2023-06-26T10:34:57;100127.41;;;29.96;100.00
49377;BME280;35253;34.688;33.040;2023-06-26T10:37:43;100130.88;;;29.91;100.00
49377;BME280;35253;34.688;33.040;2023-06-26T10:40:13;100137.81;;;29.51;100.00
49377;BME280;35253;34.688;33.040;2023-06-26T10:42:39;100125.19;;;29.86;100.00
49377;BME280;35253;34.688;33.040;2023-06-26T10:45:27;100124.88;;;30.13;100.00
49377;BME280;35253;34.688;33.040;2023-06-26T10:47:53;100127.75;;;29.81;100.00
49377;BME280;35253;34.688;33.040;2023-06-26T10:50:23;100120.59;;;29.80;100.00
49377;BME280;35253;34.688;33.040;2023-06-26T10:55:47;100126.84;;;30.24;100.00
49377;BME280;35253;34.688;33.040;2023-06-26T10:58:29;100126.84;;;30.24;100.00
49377;BME280;35253;34.688;33.040;2023-06-26T11:03:41;100119.38;;;30.13;100.00
49377;BME280;35253;34.688;33.040;2023-06-26T11:06:14;100119.69;;;29.86;100.00
49377;BME280;35253;34.688;33.040;2023-06-26T11:08:50;100114.88;;;29.64;100.00
49377;BME280;35253;34.688;33.040;2023-06-26T11:11:18;100120.94;;;29.90;100.00
49377;BME280;35253;34.688;33.040;2023-06-26T11:13:45;100114.66;;;29.83;100.00
49377;BME280;35253;34.688;33.040;2023-06-26T11:16:12;100113.13;;;29.69;100.00
49377;BME280;35253;34.688;33.040;2023-06-26T11:18:38;100115.56;;;29.77;100.00
49377;BME280;35253;34.688;33.040;2023-06-26T11:21:12;100112.97;;;30.19;100.00
49377;BME280;35253;34.688;33.040;2023-06-26T11:23:41;100117.22;;;30.15;100.00
49377;BME280;35253;34.688;33.040;2023-06-26T11:26:20;100116.47;;;30.26;100.00
49377;BME280;35253;34.688;33.040;2023-06-26T11:28:55;100116.41;;;30.44;100.00
49377;BME280;35253;34.688;33.040;2023-06-26T11:31:27;100113.84;;;30.49;100.00
49377;BME280;35253;34.688;33.040;2023-06-26T11:33:58;100107.53;;;31.02;100.00
49377;BME280;35253;34.688;33.040;2023-06-26T11:36:26;100109.03;;;30.26;100.00
49377;BME280;35253;34.688;33.040;2023-06-26T11:39:00;100107.47;;;30.19;100.00
49377;BME280;35253;34.688;33.040;2023-06-26T11:41:31;100100.19;;;30.24;100.00
49377;BME280;35253;34.688;33.040;2023-06-26T11:44:05;100101.34;;;30.17;100.00
49377;BME280;35253;34.688;33.040;2023-06-26T11:46:32;100107.66;;;30.65;100.00
49377;BME280;35253;34.688;33.040;2023-06-26T11:48:58;100100.06;;;30.91;100.00
49377;BME280;35253;34.688;33.040;2023-06-26T11:51:26;100110.22;;;30.90;100.00
49377;BME280;35253;34.688;33.040;2023-06-26T11:53:52;100101.22;;;31.59;100.00
49377;BME280;35253;34.688;33.040;2023-06-26T11:56:18;100111.81;;;30.98;100.00
49377;BME280;35253;34.688;33.040;2023-06-26T11:59:05;100103.97;;;30.71;100.00
49377;BME280;35253;34.688;33.040;2023-06-26T12:01:42;100100.25;;;30.36;100.00
49377;BME280;35253;34.688;33.040;2023-06-26T12:04:13;100104.19;;;30.10;100.00
49377;BME280;35253;34.688;33.040;2023-06-26T12:06:42;100103.69;;;30.61;100.00
49377;BME280;35253;34.688;33.040;2023-06-26T12:09:09;100101.75;;;30.50;100.00
49377;BME280;35253;34.688;33.040;2023-06-26T12:11:43;100107.94;;;30.75;100.00
49377;BME280;35253;34.688;33.040;2023-06-26T12:14:10;100100.38;;;31.24;100.00
49377;BME280;35253;34.688;33.040;2023-06-26T12:16:36;100102.03;;;31.71;100.00
49377;BME280;35253;34.688;33.040;2023-06-26T12:19:05;100102.03;;;30.72;100.00
49377;BME280;35253;34.688;33.040;2023-06-26T12:24:00;100093.59;;;30.97;100.00
49377;BME280;35253;34.688;33.040;2023-06-26T12:26:27;100097.78;;;30.46;100.00
49377;BME280;35253;34.688;33.040;2023-06-26T12:28:53;100088.75;;;30.57;100.00
49377;BME280;35253;34.688;33.040;2023-06-26T12:31:21;100104.00;;;30.83;100.00
49377;BME280;35253;34.688;33.040;2023-06-26T12:33:48;100089.91;;;30.50;100.00
49377;BME280;35253;34.688;33.040;2023-06-26T12:36:14;100102.28;;;30.70;100.00
49377;BME280;35253;34.688;33.040;2023-06-26T12:38:40;100090.66;;;30.09;100.00
49377;BME280;35253;34.688;33.040;2023-06-26T12:41:12;100083.31;;;30.21;100.00